createdAt,value
2023-03-13T00:01:43.270Z,14.77
2023-03-13T00:03:46.719Z,17.20
2023-03-13T00:05:50.903Z,13.32
2023-03-13T00:07:54.269Z,13.90
2023-03-13T00:09:57.729Z,17.50
2023-03-13T00:12:01.350Z,14.15
2023-03-13T00:14:06.445Z,14.02
2023-03-13T00:16:10.945Z,15.75
2023-03-13T00:18:24.848Z,12.57
2023-03-13T00:20:28.418Z,13.20
2023-03-13T00:22:31.934Z,14.73
2023-03-13T00:24:35.406Z,14.45
2023-03-13T00:26:38.852Z,14.73
2023-03-13T00:28:43.229Z,17.33
2023-03-13T00:30:48.895Z,11.32
2023-03-13T00:32:52.792Z,13.63
2023-03-13T00:34:56.243Z,14.97
2023-03-13T00:36:59.708Z,17.48
2023-03-13T00:39:03.160Z,18.17
2023-03-13T00:41:07.596Z,12.07
2023-03-13T00:43:10.931Z,15.05
2023-03-13T00:45:17.453Z,16.55
2023-03-13T00:47:22.357Z,17.42
2023-03-13T00:49:25.708Z,11.88
2023-03-13T00:51:29.139Z,13.20
2023-03-13T00:54:22.606Z,14.32
2023-03-13T00:56:25.941Z,15.00
2023-03-13T00:58:30.499Z,17.85
2023-03-13T01:00:34.012Z,13.57
2023-03-13T01:02:42.389Z,15.73
2023-03-13T01:04:45.801Z,14.68
2023-03-13T01:07:16.268Z,13.52
2023-03-13T01:09:20.903Z,18.30
2023-03-13T01:11:25.278Z,11.75
2023-03-13T01:13:29.375Z,15.98
2023-03-13T01:19:01.747Z,17.35
2023-03-13T01:21:05.427Z,14.40
2023-03-13T01:23:08.982Z,18.10
2023-03-13T01:25:13.589Z,11.95
2023-03-13T01:27:19.360Z,21.55
2023-03-13T01:29:22.886Z,14.40
2023-03-13T01:31:27.388Z,16.38
2023-03-13T01:33:30.846Z,15.50
2023-03-13T01:35:35.746Z,13.52
2023-03-13T01:37:49.245Z,15.55
2023-03-13T01:43:26.427Z,13.10
2023-03-13T01:45:56.610Z,11.80
2023-03-13T01:47:59.905Z,17.95
2023-03-13T01:50:28.603Z,14.90
2023-03-13T01:52:33.627Z,15.23
2023-03-13T01:54:38.634Z,12.25
2023-03-13T01:56:44.160Z,15.23
2023-03-13T01:58:47.526Z,18.92
2023-03-13T02:00:50.981Z,13.63
2023-03-13T02:02:56.910Z,13.75
2023-03-13T02:05:49.973Z,18.52
2023-03-13T02:07:56.278Z,19.65
2023-03-13T02:09:59.657Z,16.02
2023-03-13T02:12:06.751Z,15.93
2023-03-13T02:14:10.656Z,17.00
2023-03-13T02:16:14.017Z,17.13
2023-03-13T02:18:17.737Z,14.07
2023-03-13T02:20:22.427Z,14.40
2023-03-13T02:22:28.060Z,15.73
2023-03-13T02:24:41.669Z,16.25
2023-03-13T02:32:57.758Z,15.23
2023-03-13T02:35:05.884Z,16.75
2023-03-13T02:37:10.975Z,16.35
2023-03-13T02:39:43.859Z,13.63
2023-03-13T02:41:47.580Z,16.15
2023-03-13T02:43:51.235Z,11.45
2023-03-13T02:46:05.089Z,12.77
2023-03-13T02:48:13.552Z,13.63
2023-03-13T02:50:17.422Z,12.63
2023-03-13T02:52:23.938Z,15.82
2023-03-13T02:54:29.887Z,15.02
2023-03-13T02:56:35.066Z,11.52
2023-03-13T02:58:49.804Z,11.95
2023-03-13T03:00:54.189Z,13.95
2023-03-13T03:02:57.627Z,13.10
2023-03-13T03:05:02.819Z,15.30
2023-03-13T03:07:19.558Z,16.58
2023-03-13T03:09:23.306Z,11.52
2023-03-13T03:11:26.676Z,13.70
2023-03-13T03:13:30.058Z,10.05
2023-03-13T03:15:33.507Z,16.95
2023-03-13T03:17:41.870Z,10.73
2023-03-13T03:19:45.270Z,11.05
2023-03-13T03:21:50.855Z,12.40
2023-03-13T03:24:25.427Z,12.82
2023-03-13T03:26:28.608Z,12.93
2023-03-13T03:28:32.096Z,11.68
2023-03-13T03:30:35.543Z,10.95
2023-03-13T03:32:39.200Z,12.05
2023-03-13T03:34:42.789Z,12.23
2023-03-13T03:41:08.608Z,11.18
2023-03-13T03:43:11.994Z,13.40
2023-03-13T03:45:29.201Z,16.25
2023-03-13T03:47:33.262Z,16.00
2023-03-13T03:49:37.234Z,15.57
2023-03-13T03:51:40.863Z,15.85
2023-03-13T03:53:44.176Z,14.32
2023-03-13T03:55:47.681Z,16.70
2023-03-13T03:57:52.513Z,14.80
2023-03-13T04:02:06.431Z,12.80
2023-03-13T04:04:10.019Z,14.27
2023-03-13T04:06:13.349Z,13.27
2023-03-13T04:08:20.635Z,17.33
2023-03-13T04:10:23.987Z,12.23
2023-03-13T04:12:27.446Z,13.23
2023-03-13T04:14:32.308Z,14.07
2023-03-13T04:16:35.646Z,15.20
2023-03-13T04:18:39.015Z,18.55
2023-03-13T04:20:42.394Z,17.83
2023-03-13T04:26:01.468Z,18.60
2023-03-13T04:28:04.783Z,13.48
2023-03-13T04:30:11.246Z,16.85
2023-03-13T04:32:14.466Z,13.40
2023-03-13T04:34:18.253Z,13.55
2023-03-13T04:36:21.750Z,15.25
2023-03-13T04:39:21.589Z,14.35
2023-03-13T04:41:25.058Z,14.15
2023-03-13T04:43:28.501Z,14.20
2023-03-13T04:45:33.464Z,15.27
2023-03-13T04:47:36.751Z,15.38
2023-03-13T04:49:39.948Z,13.25
2023-03-13T04:51:43.509Z,13.68
2023-03-13T04:53:59.017Z,15.52
2023-03-13T04:56:02.533Z,10.13
2023-03-13T04:58:06.094Z,13.60
2023-03-13T05:00:11.655Z,15.82
2023-03-13T05:02:16.462Z,12.90
2023-03-13T05:04:19.954Z,14.10
2023-03-13T05:06:23.551Z,12.38
2023-03-13T05:08:27.060Z,12.30
2023-03-13T05:10:30.741Z,12.68
2023-03-13T05:12:34.148Z,21.05
2023-03-13T05:14:37.861Z,15.98
2023-03-13T05:16:41.368Z,10.93
2023-03-13T05:18:46.557Z,12.18
2023-03-13T05:20:54.464Z,13.30
2023-03-13T05:22:58.279Z,15.45
2023-03-13T05:25:01.856Z,10.90
2023-03-13T05:27:05.658Z,12.57
2023-03-13T05:29:10.326Z,12.25
2023-03-13T05:31:14.205Z,9.18
2023-03-13T05:33:19.425Z,10.02
2023-03-13T05:35:42.652Z,9.48
2023-03-13T05:37:46.856Z,10.70
2023-03-13T05:39:50.332Z,7.18
2023-03-13T05:41:53.935Z,8.48
2023-03-13T05:43:57.672Z,7.50
2023-03-13T05:46:07.150Z,8.93
2023-03-13T05:48:10.572Z,8.13
2023-03-13T05:50:18.900Z,8.38
2023-03-13T05:52:24.583Z,8.60
2023-03-13T05:54:53.337Z,8.25
2023-03-13T05:56:56.892Z,9.07
2023-03-13T05:59:00.413Z,10.25
2023-03-13T06:01:08.723Z,7.50
2023-03-13T06:03:14.274Z,8.73
2023-03-13T06:05:25.727Z,10.45
2023-03-13T06:07:50.568Z,7.82
2023-03-13T06:09:54.074Z,9.13
2023-03-13T06:11:57.733Z,7.10
2023-03-13T06:14:02.479Z,6.13
2023-03-13T06:16:18.545Z,7.07
2023-03-13T06:18:22.351Z,7.03
2023-03-13T06:20:26.086Z,5.68
2023-03-13T06:22:39.599Z,7.35
2023-03-13T06:24:53.413Z,4.95
2023-03-13T06:30:26.522Z,5.65
2023-03-13T06:32:31.408Z,5.47
2023-03-13T06:34:48.101Z,7.05
2023-03-13T06:41:29.208Z,7.15
2023-03-13T06:43:58.773Z,6.20
2023-03-13T06:46:09.795Z,6.15
2023-03-13T06:48:14.383Z,4.80
2023-03-13T06:50:30.785Z,4.03
2023-03-13T06:52:43.404Z,7.45
2023-03-13T06:54:49.016Z,4.32
2023-03-13T06:56:52.706Z,6.18
2023-03-13T06:59:18.105Z,6.85
2023-03-13T07:01:22.095Z,5.22
2023-03-13T07:03:25.803Z,6.95
2023-03-13T07:05:29.395Z,5.70
2023-03-13T07:07:34.055Z,8.27
2023-03-13T07:09:37.473Z,5.75
2023-03-13T07:11:42.710Z,9.40
2023-03-13T07:13:46.949Z,5.65
2023-03-13T07:16:07.815Z,3.38
2023-03-13T07:18:11.963Z,6.00
2023-03-13T07:20:17.659Z,5.47
2023-03-13T07:22:22.114Z,3.15
2023-03-13T07:24:25.954Z,3.05
2023-03-13T07:26:29.572Z,2.60
2023-03-13T07:28:37.558Z,2.60
2023-03-13T07:30:41.244Z,2.80
2023-03-13T07:32:44.732Z,3.10
2023-03-13T07:34:48.420Z,3.28
2023-03-13T07:36:51.951Z,2.28
2023-03-13T07:38:55.946Z,2.83
2023-03-13T07:41:00.178Z,2.67
2023-03-13T07:43:04.469Z,2.20
2023-03-13T07:45:12.130Z,2.65
2023-03-13T07:47:16.801Z,2.67
2023-03-13T07:49:20.389Z,2.63
2023-03-13T07:51:36.928Z,2.70
2023-03-13T07:53:44.372Z,2.47
2023-03-13T07:55:53.965Z,3.35
2023-03-13T07:57:57.427Z,2.53
2023-03-13T08:00:01.292Z,2.67
2023-03-13T08:02:06.599Z,2.53
2023-03-13T08:04:11.423Z,2.80
2023-03-13T08:06:17.086Z,3.55
2023-03-13T08:08:20.630Z,2.35
2023-03-13T08:10:41.831Z,2.60
2023-03-13T08:12:47.983Z,2.72
2023-03-13T08:14:51.605Z,2.80
2023-03-13T08:16:56.044Z,2.20
2023-03-13T08:19:01.226Z,2.55
2023-03-13T08:21:07.720Z,2.67
2023-03-13T08:23:11.217Z,2.38
2023-03-13T08:25:15.126Z,2.90
2023-03-13T08:27:18.656Z,2.35
2023-03-13T08:29:22.185Z,2.63
2023-03-13T08:31:26.492Z,2.30
2023-03-13T08:33:30.046Z,2.97
2023-03-13T08:35:35.066Z,2.55
2023-03-13T08:37:38.518Z,4.53
2023-03-13T08:39:41.908Z,1.75
2023-03-13T08:41:45.582Z,2.88
2023-03-13T08:43:55.742Z,2.97
2023-03-13T08:45:59.102Z,2.55
2023-03-13T08:48:02.629Z,2.30
2023-03-13T08:50:06.858Z,2.03
2023-03-13T08:52:11.791Z,2.35
2023-03-13T08:57:39.406Z,2.10
2023-03-13T08:59:42.953Z,2.10
2023-03-13T09:01:46.968Z,3.17
2023-03-13T09:03:50.826Z,2.80
2023-03-13T09:05:56.420Z,5.32
2023-03-13T09:08:01.790Z,2.95
2023-03-13T09:10:06.071Z,2.63
2023-03-13T09:12:24.578Z,3.95
2023-03-13T09:14:32.200Z,3.75
2023-03-13T09:16:36.072Z,3.22
2023-03-13T09:18:39.816Z,3.22
2023-03-13T09:20:47.088Z,4.05
2023-03-13T09:22:51.812Z,2.70
2023-03-13T09:24:56.806Z,2.88
2023-03-13T09:27:01.697Z,3.95
2023-03-13T09:29:05.390Z,2.83
2023-03-13T09:31:10.188Z,2.67
2023-03-13T09:33:14.188Z,3.38
2023-03-13T09:35:21.255Z,3.95
2023-03-13T09:37:24.926Z,3.58
2023-03-13T09:39:30.949Z,4.30
2023-03-13T09:41:37.855Z,3.00
2023-03-13T09:43:44.602Z,2.97
2023-03-13T09:45:49.017Z,3.20
2023-03-13T09:47:53.819Z,1.80
2023-03-13T09:49:59.562Z,3.40
2023-03-13T09:52:07.190Z,3.15
2023-03-13T09:54:19.007Z,2.45
2023-03-13T09:56:24.971Z,2.53
2023-03-13T09:58:30.443Z,2.65
2023-03-13T10:00:37.720Z,2.33
2023-03-13T10:02:46.520Z,4.35
2023-03-13T10:04:51.689Z,2.72
2023-03-13T10:07:01.748Z,3.35
2023-03-13T10:09:07.164Z,3.10
2023-03-13T10:11:12.766Z,2.50
2023-03-13T10:13:19.734Z,2.53
2023-03-13T10:15:40.728Z,2.97
2023-03-13T10:17:44.306Z,4.07
2023-03-13T10:19:48.569Z,3.78
2023-03-13T10:21:53.652Z,2.67
2023-03-13T10:23:59.176Z,5.47
2023-03-13T10:26:02.819Z,4.93
2023-03-13T10:28:06.687Z,4.97
2023-03-13T10:30:12.624Z,3.33
2023-03-13T10:32:21.278Z,4.95
2023-03-13T10:34:25.159Z,3.47
2023-03-13T10:36:28.985Z,3.08
2023-03-13T10:38:34.486Z,3.53
2023-03-13T10:40:38.548Z,4.57
2023-03-13T10:42:45.010Z,3.42
2023-03-13T10:44:48.568Z,2.97
2023-03-13T10:47:01.983Z,5.43
2023-03-13T10:49:13.084Z,3.28
2023-03-13T10:51:22.822Z,3.53
2023-03-13T10:53:34.146Z,4.45
2023-03-13T10:55:37.740Z,5.07
2023-03-13T10:57:41.755Z,3.78
2023-03-13T10:59:46.627Z,3.20
2023-03-13T11:02:02.660Z,3.78
2023-03-13T11:04:21.223Z,3.40
2023-03-13T11:06:31.905Z,2.97
2023-03-13T11:08:39.339Z,3.47
2023-03-13T11:11:02.341Z,4.57
2023-03-13T11:13:06.037Z,3.38
2023-03-13T11:15:14.806Z,3.35
2023-03-13T11:17:23.298Z,3.22
2023-03-13T11:19:51.439Z,3.75
2023-03-13T11:22:02.372Z,4.05
2023-03-13T11:24:08.778Z,3.55
2023-03-13T11:26:15.678Z,4.85
2023-03-13T11:28:29.987Z,5.57
2023-03-13T11:30:54.155Z,5.78
2023-03-13T11:32:58.412Z,4.05
2023-03-13T11:35:05.199Z,5.35
2023-03-13T11:37:11.880Z,3.28
2023-03-13T11:39:35.317Z,5.10
2023-03-13T11:41:46.264Z,4.65
2023-03-13T11:43:57.905Z,3.90
2023-03-13T11:46:17.517Z,2.80
2023-03-13T11:48:27.415Z,6.68
2023-03-13T11:50:38.793Z,2.78
2023-03-13T11:52:53.204Z,5.28
2023-03-13T11:55:33.132Z,3.95
2023-03-13T11:57:39.207Z,5.38
2023-03-13T11:59:46.344Z,3.83
2023-03-13T12:01:52.801Z,3.20
2023-03-13T12:03:59.270Z,3.22
2023-03-13T12:06:04.569Z,3.40
2023-03-13T12:08:11.083Z,3.03
2023-03-13T12:10:15.349Z,3.50
2023-03-13T12:12:27.297Z,5.53
2023-03-13T12:14:33.046Z,3.38
2023-03-13T12:16:41.983Z,3.60
2023-03-13T12:18:46.123Z,4.05
2023-03-13T12:20:56.221Z,4.03
2023-03-13T12:23:05.929Z,3.35
2023-03-13T12:25:13.994Z,3.42
2023-03-13T12:27:19.697Z,6.05
2023-03-13T12:29:29.511Z,3.78
2023-03-13T12:31:35.203Z,3.45
2023-03-13T12:33:41.674Z,2.97
2023-03-13T12:35:47.327Z,4.50
2023-03-13T12:37:54.986Z,4.55
2023-03-13T12:40:07.574Z,3.15
2023-03-13T12:42:22.408Z,5.18
2023-03-13T12:44:26.649Z,3.65
2023-03-13T12:46:40.427Z,2.70
2023-03-13T12:48:53.855Z,3.58
2023-03-13T12:51:09.702Z,6.53
2023-03-13T12:53:22.174Z,5.55
2023-03-13T12:55:59.512Z,3.05
2023-03-13T12:58:32.574Z,4.97
2023-03-13T13:00:39.957Z,5.03
2023-03-13T13:02:43.893Z,3.50
2023-03-13T13:04:48.299Z,7.20
2023-03-13T13:06:53.733Z,5.53
2023-03-13T13:09:16.595Z,3.13
2023-03-13T13:11:57.058Z,3.30
2023-03-13T13:14:01.992Z,3.63
2023-03-13T13:16:06.664Z,5.03
2023-03-13T13:18:18.165Z,3.13
2023-03-13T13:20:41.345Z,6.40
2023-03-13T13:22:52.867Z,3.80
2023-03-13T13:24:56.792Z,4.30
2023-03-13T13:27:00.536Z,3.88
2023-03-13T13:29:46.747Z,3.63
2023-03-13T13:32:01.236Z,4.40
2023-03-13T13:34:04.954Z,4.18
2023-03-13T13:36:31.292Z,4.57
2023-03-13T13:38:40.559Z,7.07
2023-03-13T13:40:45.136Z,2.72
2023-03-13T13:42:50.259Z,3.85
2023-03-13T13:45:05.007Z,3.50
2023-03-13T13:47:23.905Z,5.10
2023-03-13T13:49:34.802Z,4.20
2023-03-13T13:51:38.951Z,4.30
2023-03-13T13:53:44.969Z,6.10
2023-03-13T13:55:48.972Z,5.20
2023-03-13T13:57:52.934Z,3.50
2023-03-13T13:59:58.777Z,5.22
2023-03-13T14:02:24.374Z,3.97
2023-03-13T14:04:30.410Z,4.28
2023-03-13T14:06:35.802Z,5.97
2023-03-13T14:08:40.687Z,2.92
2023-03-13T14:10:46.167Z,3.08
2023-03-13T14:12:52.794Z,3.90
2023-03-13T14:15:23.670Z,4.22
2023-03-13T14:17:29.232Z,3.10
2023-03-13T14:19:41.668Z,2.80
2023-03-13T14:21:45.546Z,3.60
2023-03-13T14:23:49.870Z,4.70
2023-03-13T14:25:53.725Z,3.97
2023-03-13T14:27:57.751Z,3.10
2023-03-13T14:30:05.254Z,5.80
2023-03-13T14:32:10.192Z,3.85
2023-03-13T14:34:15.392Z,3.15
2023-03-13T14:36:19.221Z,3.75
2023-03-13T14:38:23.588Z,5.85
2023-03-13T14:40:27.998Z,5.07
2023-03-13T14:42:33.555Z,5.80
2023-03-13T14:44:37.276Z,4.18
2023-03-13T14:46:43.534Z,4.72
2023-03-13T14:48:47.518Z,4.32
2023-03-13T14:51:05.451Z,4.60
2023-03-13T14:53:19.946Z,3.92
2023-03-13T14:55:33.309Z,3.08
2023-03-13T14:57:37.041Z,7.50
2023-03-13T14:59:41.046Z,6.93
2023-03-13T15:01:44.835Z,5.63
2023-03-13T15:03:48.802Z,4.03
2023-03-13T15:06:05.348Z,6.07
2023-03-13T15:08:14.060Z,5.78
2023-03-13T15:10:21.570Z,6.05
2023-03-13T15:12:25.714Z,3.22
2023-03-13T15:14:37.233Z,8.43
2023-03-13T15:16:40.927Z,2.20
2023-03-13T15:18:44.704Z,2.00
2023-03-13T15:20:51.605Z,2.03
2023-03-13T15:22:56.576Z,3.92
2023-03-13T15:25:06.720Z,2.72
2023-03-13T15:27:17.655Z,4.97
2023-03-13T15:29:21.557Z,0.75
2023-03-13T15:31:27.239Z,3.65
2023-03-13T15:33:31.874Z,1.98
2023-03-13T15:35:35.952Z,2.63
2023-03-13T15:37:39.684Z,2.40
2023-03-13T15:39:45.738Z,2.08
2023-03-13T15:41:49.497Z,2.38
2023-03-13T15:43:55.618Z,1.67
2023-03-13T15:45:59.444Z,1.17
2023-03-13T15:48:02.955Z,1.75
2023-03-13T15:50:07.959Z,1.70
2023-03-13T15:52:19.108Z,0.85
2023-03-13T15:54:24.250Z,0.90
2023-03-13T15:56:29.940Z,1.98
2023-03-13T15:58:33.798Z,1.85
2023-03-13T16:00:37.600Z,2.15
2023-03-13T16:02:41.358Z,2.28
2023-03-13T16:04:45.603Z,1.10
2023-03-13T16:06:52.643Z,0.73
2023-03-13T16:09:01.849Z,1.73
2023-03-13T16:11:06.054Z,3.58
2023-03-13T16:13:11.578Z,2.55
2023-03-13T16:15:15.123Z,2.03
2023-03-13T16:17:19.495Z,1.40
2023-03-13T16:19:23.251Z,2.05
2023-03-13T16:21:28.054Z,3.00
2023-03-13T16:23:32.015Z,3.35
2023-03-13T16:25:35.752Z,3.80
2023-03-13T16:27:40.091Z,4.05
2023-03-13T16:29:45.313Z,4.15
2023-03-13T16:31:49.025Z,5.68
2023-03-13T16:33:54.110Z,2.97
2023-03-13T16:35:58.064Z,2.08
2023-03-13T16:38:01.906Z,3.70
2023-03-13T16:40:10.709Z,3.55
2023-03-13T16:42:14.682Z,4.60
2023-03-13T16:44:18.522Z,5.57
2023-03-13T16:46:24.906Z,3.38
2023-03-13T16:48:28.465Z,3.13
2023-03-13T16:50:34.284Z,3.35
2023-03-13T16:52:37.585Z,6.47
2023-03-13T16:54:41.702Z,4.55
2023-03-13T16:56:45.304Z,3.70
2023-03-13T16:58:48.991Z,4.97
2023-03-13T17:01:04.553Z,2.97
2023-03-13T17:03:10.471Z,4.55
2023-03-13T17:05:16.044Z,2.50
2023-03-13T17:07:21.013Z,6.57
2023-03-13T17:09:24.708Z,3.75
2023-03-13T17:11:28.864Z,5.32
2023-03-13T17:13:47.160Z,3.63
2023-03-13T17:15:51.140Z,5.13
2023-03-13T17:17:55.205Z,5.28
2023-03-13T17:20:00.306Z,5.95
2023-03-13T17:22:04.168Z,5.28
2023-03-13T17:24:08.794Z,4.13
2023-03-13T17:26:22.357Z,5.68
2023-03-13T17:28:25.989Z,3.63
2023-03-13T17:30:31.070Z,4.22
2023-03-13T17:32:34.690Z,3.97
2023-03-13T17:34:38.353Z,3.15
2023-03-13T17:36:43.332Z,3.70
2023-03-13T17:38:47.149Z,5.22
2023-03-13T17:40:50.767Z,5.43
2023-03-13T17:42:55.491Z,4.80
2023-03-13T17:44:59.713Z,5.05
2023-03-13T17:47:03.079Z,3.35
2023-03-13T17:49:07.811Z,4.63
2023-03-13T17:51:18.514Z,5.97
2023-03-13T17:53:23.558Z,4.35
2023-03-13T17:55:27.461Z,4.05
2023-03-13T17:57:31.335Z,7.00
2023-03-13T17:59:34.818Z,4.15
2023-03-13T18:01:38.329Z,3.67
2023-03-13T18:03:42.519Z,3.63
2023-03-13T18:05:46.132Z,4.65
2023-03-13T18:07:49.821Z,4.95
2023-03-13T18:09:54.776Z,5.65
2023-03-13T18:12:12.689Z,4.07
2023-03-13T18:14:16.272Z,5.65
2023-03-13T18:16:30.690Z,5.82
2023-03-13T18:18:34.284Z,4.47
2023-03-13T18:20:37.624Z,6.85
2023-03-13T18:22:41.474Z,5.70
2023-03-13T18:24:45.172Z,6.50
2023-03-13T18:26:52.140Z,7.07
2023-03-13T18:29:00.338Z,7.78
2023-03-13T18:31:05.092Z,7.07
2023-03-13T18:33:48.194Z,5.15
2023-03-13T18:35:59.871Z,7.15
2023-03-13T18:38:04.483Z,5.13
2023-03-13T18:40:16.461Z,6.88
2023-03-13T18:42:21.815Z,6.13
2023-03-13T18:46:27.352Z,3.90
2023-03-13T18:48:31.929Z,5.43
2023-03-13T18:50:35.606Z,4.55
2023-03-13T18:52:40.450Z,6.13
2023-03-13T18:54:44.721Z,5.90
2023-03-13T18:56:48.585Z,5.07
2023-03-13T18:58:54.536Z,7.97
2023-03-13T19:00:58.114Z,4.90
2023-03-13T19:03:02.086Z,4.85
2023-03-13T19:05:06.000Z,5.32
2023-03-13T19:07:16.463Z,7.97
2023-03-13T19:09:42.145Z,4.28
2023-03-13T19:11:44.108Z,6.85
2023-03-13T19:14:19.668Z,4.70
2023-03-13T19:16:28.608Z,8.82
2023-03-13T19:18:36.933Z,4.72
2023-03-13T19:20:49.686Z,3.72
2023-03-13T19:22:55.178Z,3.13
2023-03-13T19:24:59.624Z,6.53
2023-03-13T19:27:02.866Z,4.88
2023-03-13T19:29:11.155Z,6.93
2023-03-13T19:31:15.926Z,9.32
2023-03-13T19:33:20.324Z,5.25
2023-03-13T19:35:23.838Z,4.70
2023-03-13T19:37:33.579Z,4.97
2023-03-13T19:39:36.887Z,3.60
2023-03-13T19:41:43.214Z,3.92
2023-03-13T19:43:47.985Z,5.10
2023-03-13T19:45:53.428Z,7.43
2023-03-13T19:47:56.851Z,3.63
2023-03-13T19:50:02.655Z,4.85
2023-03-13T19:52:07.231Z,3.33
2023-03-13T19:54:11.636Z,2.38
2023-03-13T19:56:17.896Z,3.90
2023-03-13T19:58:21.528Z,3.72
2023-03-13T20:00:25.981Z,1.90
2023-03-13T20:02:31.055Z,1.77
2023-03-13T20:04:34.578Z,2.33
2023-03-13T20:06:39.734Z,2.17
2023-03-13T20:08:43.432Z,3.50
2023-03-13T20:10:54.734Z,2.13
2023-03-13T20:12:58.006Z,2.25
2023-03-13T20:15:01.526Z,3.70
2023-03-13T20:17:05.714Z,2.17
2023-03-13T20:19:10.796Z,1.70
2023-03-13T20:21:14.728Z,1.92
2023-03-13T20:27:40.096Z,2.80
2023-03-13T20:29:44.860Z,2.70
2023-03-13T20:31:48.699Z,2.75
2023-03-13T20:33:54.666Z,1.83
2023-03-13T20:36:02.620Z,1.00
2023-03-13T20:38:06.273Z,1.73
2023-03-13T20:40:10.968Z,1.63
2023-03-13T20:42:15.630Z,2.90
2023-03-13T20:44:29.366Z,2.42
2023-03-13T20:46:32.967Z,1.75
2023-03-13T20:48:42.663Z,1.45
2023-03-13T20:50:46.235Z,4.22
2023-03-13T20:52:53.981Z,2.40
2023-03-13T20:54:57.457Z,1.67
2023-03-13T20:57:02.425Z,2.42
2023-03-13T20:59:06.092Z,2.17
2023-03-13T21:01:09.854Z,3.40
2023-03-13T21:03:19.732Z,1.67
2023-03-13T21:05:23.282Z,4.05
2023-03-13T21:07:26.978Z,1.70
2023-03-13T21:09:32.362Z,3.50
2023-03-13T21:11:37.593Z,1.42
2023-03-13T21:13:41.068Z,2.00
2023-03-13T21:15:44.660Z,2.58
2023-03-13T21:18:01.856Z,2.50
2023-03-13T21:20:09.014Z,2.22
2023-03-13T21:22:12.901Z,2.95
2023-03-13T21:24:19.097Z,1.95
2023-03-13T21:26:45.016Z,3.70
2023-03-13T21:28:48.487Z,1.83
2023-03-13T21:30:52.838Z,7.57
2023-03-13T21:32:56.682Z,3.15
2023-03-13T21:35:00.028Z,2.25
2023-03-13T21:37:03.578Z,2.88
2023-03-13T21:39:08.510Z,2.50
2023-03-13T21:41:14.187Z,2.10
2023-03-13T21:43:18.973Z,2.92
2023-03-13T21:45:22.348Z,2.38
2023-03-13T21:47:25.770Z,2.22
2023-03-13T21:49:31.157Z,2.63
2023-03-13T21:51:34.998Z,2.75
2023-03-13T21:53:38.477Z,1.70
2023-03-13T21:55:42.258Z,2.22
2023-03-13T21:57:45.798Z,1.90
2023-03-13T21:59:50.614Z,1.75
2023-03-13T22:01:54.971Z,1.67
2023-03-13T22:03:58.627Z,2.55
2023-03-13T22:06:01.977Z,1.50
2023-03-13T22:08:06.855Z,3.95
2023-03-13T22:10:11.657Z,3.45
2023-03-13T22:12:15.069Z,1.58
2023-03-13T22:14:18.935Z,2.97
2023-03-13T22:16:25.546Z,1.85
2023-03-13T22:18:29.098Z,2.20
2023-03-13T22:20:32.633Z,2.88
2023-03-13T22:22:36.309Z,1.98
2023-03-13T22:24:40.048Z,1.48
2023-03-13T22:26:43.533Z,2.08
2023-03-13T22:28:47.150Z,2.00
2023-03-13T22:30:50.850Z,1.15
2023-03-13T22:32:55.958Z,2.55
2023-03-13T22:34:59.651Z,1.08
2023-03-13T22:37:03.630Z,1.88
2023-03-13T22:39:30.304Z,1.55
2023-03-13T22:41:33.925Z,1.10
2023-03-13T22:43:37.444Z,2.47
2023-03-13T22:45:41.170Z,2.92
2023-03-13T22:47:44.653Z,2.38
2023-03-13T22:50:28.064Z,2.92
2023-03-13T22:52:33.517Z,2.20
2023-03-13T22:54:37.138Z,1.50
2023-03-13T22:56:40.994Z,2.47
2023-03-13T22:58:49.780Z,1.30
2023-03-13T23:00:53.248Z,1.80
2023-03-13T23:02:56.961Z,1.60
2023-03-13T23:05:01.468Z,1.35
2023-03-13T23:07:04.943Z,1.73
2023-03-13T23:09:09.853Z,2.35
2023-03-13T23:11:13.518Z,1.70
2023-03-13T23:13:18.303Z,4.97
2023-03-13T23:15:22.619Z,1.20
2023-03-13T23:17:32.501Z,1.20
2023-03-13T23:19:36.356Z,1.42
2023-03-13T23:21:39.757Z,1.42
2023-03-13T23:23:43.334Z,1.77
2023-03-13T23:25:48.231Z,1.10
2023-03-13T23:27:51.816Z,2.90
2023-03-13T23:29:56.214Z,2.00
2023-03-13T23:31:59.528Z,2.28
2023-03-13T23:34:03.062Z,3.70
2023-03-13T23:36:24.966Z,2.60
2023-03-13T23:38:28.465Z,2.00
2023-03-13T23:40:32.799Z,1.77
2023-03-13T23:42:37.472Z,3.20
2023-03-13T23:44:40.924Z,1.67
2023-03-13T23:46:44.403Z,1.23
2023-03-13T23:52:13.401Z,2.08
2023-03-13T23:54:16.737Z,1.40
2023-03-13T23:56:20.211Z,2.83
2023-03-13T23:58:25.011Z,2.67
